Los Angeles, Argentina
Current Conditions -  °F | °C
As of 5:00 AM on Monday 24 Nov 2014 (Local Time) from SANT Reporting Station
Clear Clear  
Wind Chill: 22°   Ceiling: Unl
Heat Index: 22°   Visibility: 6mi
Dew Point: 17°   Wind: 8mph
Humidity: 73%   Direction: 360°N
Pressure: 29.59"   Gusts: NA
Location:  28.54°S, 65.95°W
Report Text: SANT 240800Z 36007KT CAVOK 22/17 Q1002
Loading
Personal Weather Stations






























Interactive Weather Map New forecast layout! Learn more

10-Day Weather Forecast

Advertisements
Track Severe Weather on mobile